Time;durP1;ratioP1;P1;durP2;ratioP2;P2;SDS_P1;SDS_P2;PMS_P1;PMS_P2;Temp;Humidity;BMP_temperature;BMP_pressure;BME280_temperature;BME280_humidity;BME280_pressure;Samples;Min_cycle;Max_cycle;Signal;HPM_P1;HPM_P2
2023/08/17 00:02:19;;;;;;;4.05;1.60;;;;;;;21.64;55.80;101870.69;5030383;28;20513;-63
2023/08/17 00:04:46;;;;;;;5.20;1.58;;;;;;;21.64;56.01;101867.13;5059107;28;20049;-63
2023/08/17 00:07:14;;;;;;;5.30;1.85;;;;;;;21.63;55.92;101868.22;5043173;28;20057;-63
2023/08/17 00:09:43;;;;;;;4.20;1.33;;;;;;;21.63;55.99;101868.22;5042821;28;20071;-64
2023/08/17 00:12:11;;;;;;;5.63;1.52;;;;;;;21.61;56.02;101854.81;5046181;28;20053;-64
2023/08/17 00:18:26;;;;;;;3.58;1.70;;;;;;;21.61;56.13;101860.28;5062905;28;20040;-63
2023/08/17 00:20:54;;;;;;;2.67;1.33;;;;;;;21.60;56.04;101858.63;5061434;28;20057;-63
2023/08/17 00:23:22;;;;;;;3.00;1.63;;;;;;;21.60;56.18;101852.34;5057383;28;20054;-63
2023/08/17 00:25:52;;;;;;;4.45;1.48;;;;;;;21.59;56.18;101856.16;5042493;28;20072;-63
2023/08/17 00:28:20;;;;;;;2.60;1.15;;;;;;;21.58;56.23;101855.34;5062256;28;20093;-63
2023/08/17 00:30:48;;;;;;;3.85;1.50;;;;;;;21.58;56.22;101851.78;5058776;28;20045;-63
2023/08/17 00:33:16;;;;;;;3.25;1.30;;;;;;;21.55;56.17;101847.69;5049066;28;20045;-64
2023/08/17 00:35:45;;;;;;;5.10;1.65;;;;;;;21.54;56.13;101851.50;5061173;28;20070;-63
2023/08/17 00:38:13;;;;;;;3.13;1.17;;;;;;;21.54;56.22;101856.16;5131732;28;20061;-63
2023/08/17 00:40:41;;;;;;;4.03;1.30;;;;;;;21.54;56.36;101858.91;5127111;28;20046;-63
2023/08/17 00:43:10;;;;;;;3.42;1.33;;;;;;;21.52;56.41;101855.63;5047476;28;20060;-63
2023/08/17 00:45:38;;;;;;;4.03;1.50;;;;;;;21.50;56.36;101852.31;5042305;28;20237;-63
2023/08/17 00:48:08;;;;;;;2.10;1.20;;;;;;;21.43;56.28;101852.59;5049470;28;20128;-63
2023/08/17 00:50:38;;;;;;;3.75;1.50;;;;;;;21.49;56.42;101865.19;5050495;28;20050;-63
2023/08/17 00:53:12;;;;;;;4.53;1.38;;;;;;;21.48;56.47;101855.34;5047639;27;20098;-63
2023/08/17 00:55:41;;;;;;;2.15;1.38;;;;;;;21.48;56.64;101865.44;5046232;28;20056;-63
2023/08/17 00:58:10;;;;;;;3.58;1.45;;;;;;;21.48;56.42;101865.44;5045742;28;20046;-63
2023/08/17 01:00:38;;;;;;;3.60;1.30;;;;;;;21.47;56.50;101863.81;5062055;28;20049;-63
2023/08/17 01:03:06;;;;;;;4.00;1.20;;;;;;;21.48;56.49;101869.00;5065497;28;20567;-63
2023/08/17 01:05:34;;;;;;;2.97;1.50;;;;;;;21.48;56.44;101870.91;5055569;28;20082;-63
2023/08/17 01:08:02;;;;;;;7.05;1.60;;;;;;;21.47;56.35;101872.00;5045830;28;20075;-63
2023/08/17 01:10:38;;;;;;;2.90;1.52;;;;;;;21.44;56.39;101865.16;5063416;28;20075;-63
2023/08/17 01:13:14;;;;;;;5.30;1.38;;;;;;;21.43;56.49;101861.59;5065359;28;20053;-63
2023/08/17 01:15:50;;;;;;;3.55;1.48;;;;;;;21.42;56.39;101862.69;5065372;28;20098;-63
2023/08/17 01:18:23;;;;;;;4.85;1.40;;;;;;;21.40;56.53;101867.63;5061940;28;20121;-64
2023/08/17 01:20:52;;;;;;;3.60;1.50;;;;;;;21.39;56.43;101870.63;5045519;28;20063;-63
2023/08/17 01:23:22;;;;;;;4.28;1.40;;;;;;;21.37;56.42;101862.69;5045486;27;20056;-63
2023/08/17 01:25:50;;;;;;;4.18;1.58;;;;;;;21.34;56.54;101868.69;5045475;28;20052;-63
2023/08/17 01:28:18;;;;;;;6.38;1.45;;;;;;;21.32;56.30;101865.41;5050104;27;20049;-63
2023/08/17 01:30:54;;;;;;;3.45;1.58;;;;;;;21.30;56.41;101861.28;5045092;28;20046;-63
2023/08/17 01:33:30;;;;;;;3.58;1.52;;;;;;;21.29;56.53;101859.66;5052809;28;20053;-63
2023/08/17 01:36:11;;;;;;;4.30;1.60;;;;;;;21.26;56.67;101860.19;5065387;28;20061;-63
2023/08/17 01:38:42;;;;;;;3.40;1.40;;;;;;;21.26;56.60;101852.81;5041412;28;20083;-61
2023/08/17 01:41:12;;;;;;;4.43;1.40;;;;;;;21.24;56.67;101845.97;5045330;28;20071;-62
2023/08/17 01:43:45;;;;;;;4.50;1.67;;;;;;;21.23;56.74;101847.88;5044770;28;20049;-62
2023/08/17 01:46:15;;;;;;;2.35;1.30;;;;;;;21.23;56.70;101853.34;5057456;28;20059;-63
2023/08/17 01:48:43;;;;;;;3.03;1.55;;;;;;;21.22;56.80;101842.69;5064932;27;20053;-63
2023/08/17 01:51:12;;;;;;;3.60;1.20;;;;;;;21.20;56.91;101845.66;5046125;28;20046;-63
2023/08/17 01:53:41;;;;;;;4.88;1.60;;;;;;;21.20;56.73;101848.38;5045360;28;20049;-63
2023/08/17 01:56:09;;;;;;;2.55;1.33;;;;;;;21.19;56.95;101845.91;5044933;28;20049;-63
2023/08/17 01:58:36;;;;;;;3.63;1.58;;;;;;;21.19;56.93;101854.94;5044743;28;20057;-63
2023/08/17 02:01:04;;;;;;;2.70;1.17;;;;;;;21.17;56.97;101853.56;5043812;28;20049;-63
2023/08/17 02:03:32;;;;;;;6.45;1.40;;;;;;;21.13;57.04;101848.63;5061497;28;20060;-63
2023/08/17 02:06:00;;;;;;;2.78;1.60;;;;;;;21.15;56.99;101853.84;5050890;28;20074;-62
2023/08/17 02:08:28;;;;;;;4.05;1.60;;;;;;;21.15;57.18;101853.84;5045102;28;20082;-62
2023/08/17 02:10:57;;;;;;;3.78;1.45;;;;;;;21.15;57.03;101861.22;5044847;28;20587;-62
2023/08/17 02:13:27;;;;;;;4.57;1.50;;;;;;;21.14;57.21;101860.38;5062597;28;20057;-62
2023/08/17 02:15:55;;;;;;;3.78;1.40;;;;;;;21.13;57.23;101858.75;5056119;28;20041;-62
2023/08/17 02:18:22;;;;;;;3.65;2.05;;;;;;;21.12;57.13;101863.41;5044623;28;20050;-62
2023/08/17 02:20:50;;;;;;;3.28;1.50;;;;;;;21.11;57.19;101863.66;5044544;28;20053;-63
2023/08/17 02:23:18;;;;;;;3.97;1.60;;;;;;;21.10;57.20;101865.56;5045029;27;20106;-63
2023/08/17 02:25:46;;;;;;;4.32;1.60;;;;;;;21.11;57.18;101856.28;5043793;28;20045;-63
2023/08/17 02:28:15;;;;;;;3.75;1.80;;;;;;;21.09;57.39;101854.91;5084042;27;20093;-63
2023/08/17 02:30:44;;;;;;;6.47;1.77;;;;;;;21.09;57.41;101865.84;5064656;28;20098;-63
2023/08/17 02:33:12;;;;;;;5.97;1.85;;;;;;;21.06;57.41;101850.78;5064402;27;20041;-63
2023/08/17 02:35:40;;;;;;;6.00;1.40;;;;;;;21.08;57.42;101858.72;5049534;28;20050;-62
2023/08/17 02:38:07;;;;;;;2.85;1.30;;;;;;;21.05;57.44;101851.88;5074211;27;20048;-63
2023/08/17 02:40:35;;;;;;;3.97;1.80;;;;;;;21.04;57.62;101855.72;5064184;28;20049;-62
2023/08/17 02:43:03;;;;;;;5.47;1.70;;;;;;;21.02;57.63;101844.22;5063939;28;20045;-62
2023/08/17 02:45:34;;;;;;;4.70;1.60;;;;;;;20.94;57.54;101830.25;5062442;27;20064;-62
2023/08/17 02:48:02;;;;;;;8.00;1.52;;;;;;;21.02;57.72;101840.66;5064262;28;20053;-62
2023/08/17 02:50:30;;;;;;;5.53;2.03;;;;;;;21.00;57.78;101840.09;5059468;28;20068;-62
2023/08/17 02:52:59;;;;;;;4.60;1.60;;;;;;;20.99;57.90;101842.03;5061052;28;20098;-62
2023/08/17 02:55:27;;;;;;;3.13;1.70;;;;;;;20.98;57.72;101837.63;5044299;28;20054;-62
2023/08/17 02:57:55;;;;;;;3.95;1.50;;;;;;;20.98;57.73;101834.09;5043859;28;20098;-62
2023/08/17 03:00:23;;;;;;;2.38;1.42;;;;;;;20.98;57.73;101831.34;5063342;28;20045;-62
2023/08/17 03:02:52;;;;;;;6.07;1.45;;;;;;;20.98;57.62;101834.09;5063909;28;20044;-61
2023/08/17 03:05:20;;;;;;;5.50;1.95;;;;;;;20.97;57.80;101838.72;5055499;28;20061;-62
2023/08/17 03:07:48;;;;;;;3.40;1.75;;;;;;;20.97;57.70;101833.25;5043545;28;20102;-62
2023/08/17 03:10:16;;;;;;;5.97;1.83;;;;;;;20.96;57.86;101823.41;5043849;28;20498;-62
2023/08/17 03:12:44;;;;;;;5.32;2.00;;;;;;;20.95;57.90;101829.16;5043218;28;20069;-61
2023/08/17 03:15:12;;;;;;;5.03;1.52;;;;;;;20.94;57.94;101831.06;5043788;28;20078;-62
2023/08/17 03:17:40;;;;;;;5.10;1.80;;;;;;;20.93;58.00;101828.59;5056174;28;20052;-62
2023/08/17 03:20:10;;;;;;;7.13;1.90;;;;;;;20.92;57.97;101833.25;5056552;28;20053;-62
2023/08/17 03:22:38;;;;;;;4.43;1.80;;;;;;;20.90;58.02;101824.50;5043508;28;20498;-62
2023/08/17 03:25:07;;;;;;;2.53;1.38;;;;;;;20.89;57.96;101828.31;5043758;28;20075;-62
2023/08/17 03:27:35;;;;;;;3.50;1.48;;;;;;;20.86;58.04;101825.28;5071075;28;20128;-63
2023/08/17 03:30:03;;;;;;;3.63;1.50;;;;;;;20.86;57.98;101830.75;5063718;28;20049;-62
2023/08/17 03:32:31;;;;;;;6.55;2.13;;;;;;;20.85;57.90;101823.66;5062749;28;20044;-62
2023/08/17 03:34:59;;;;;;;12.85;1.90;;;;;;;20.82;58.04;101830.47;5063287;28;20045;-62
2023/08/17 03:37:28;;;;;;;6.00;2.58;;;;;;;20.80;58.08;101833.47;5053545;28;20050;-62
2023/08/17 03:39:56;;;;;;;6.88;1.95;;;;;;;20.80;57.90;101833.47;5043767;28;20086;-62
2023/08/17 03:42:24;;;;;;;4.38;1.63;;;;;;;20.78;58.06;101837.59;5062930;28;20041;-62
2023/08/17 03:44:52;;;;;;;3.10;1.58;;;;;;;20.78;58.04;101832.13;5052521;28;20078;-61
2023/08/17 03:47:20;;;;;;;3.00;1.50;;;;;;;20.78;58.06;101826.66;5043587;28;20049;-62
2023/08/17 03:49:48;;;;;;;4.18;1.48;;;;;;;20.76;57.93;101832.38;5043254;28;20053;-61
2023/08/17 03:52:16;;;;;;;5.63;1.77;;;;;;;20.76;57.92;101835.13;5058801;28;20048;-63
2023/08/17 03:54:46;;;;;;;6.28;1.80;;;;;;;20.75;57.97;101829.91;5045255;28;20515;-62
2023/08/17 03:57:14;;;;;;;5.00;1.95;;;;;;;20.74;57.91;101833.75;5042849;28;20070;-62
2023/08/17 03:59:42;;;;;;;2.15;1.17;;;;;;;20.67;57.98;101820.31;5054907;28;20094;-62
2023/08/17 04:02:10;;;;;;;5.00;1.40;;;;;;;20.74;57.88;101836.47;5062991;28;20066;-62
2023/08/17 04:04:38;;;;;;;4.35;1.83;;;;;;;20.73;57.80;101834.81;5060235;28;20049;-62
2023/08/17 04:07:07;;;;;;;2.60;1.40;;;;;;;20.71;57.72;101837.81;5042946;28;20053;-62
2023/08/17 04:09:35;;;;;;;6.55;1.92;;;;;;;20.70;57.74;101835.34;5062329;27;20049;-63
2023/08/17 04:12:05;;;;;;;4.43;1.50;;;;;;;20.69;57.77;101844.63;5062774;27;20045;-62
2023/08/17 04:14:33;;;;;;;6.18;1.50;;;;;;;20.68;57.69;101843.81;5061013;28;20052;-62
2023/08/17 04:17:01;;;;;;;6.07;1.30;;;;;;;20.66;57.66;101845.16;5050147;28;20058;-62
2023/08/17 04:19:29;;;;;;;5.45;1.40;;;;;;;20.66;57.62;101854.19;5061957;28;20048;-62
2023/08/17 04:21:58;;;;;;;4.63;1.88;;;;;;;20.64;57.55;101856.34;5061121;28;20094;-62
2023/08/17 04:24:26;;;;;;;4.82;1.25;;;;;;;20.64;57.66;101856.34;5047384;28;20140;-62
2023/08/17 04:26:53;;;;;;;4.20;1.67;;;;;;;20.62;57.48;101853.06;5044367;28;20073;-62
2023/08/17 04:29:23;;;;;;;4.22;1.50;;;;;;;20.60;57.51;101860.72;5062538;28;20052;-63
2023/08/17 04:31:50;;;;;;;6.15;1.60;;;;;;;20.58;57.52;101859.31;5044883;28;20045;-62
2023/08/17 04:34:18;;;;;;;4.38;1.65;;;;;;;20.59;57.50;101859.06;5057664;28;20449;-62
2023/08/17 04:36:46;;;;;;;3.78;1.95;;;;;;;20.60;57.46;101859.88;5058257;28;20045;-62
2023/08/17 04:39:14;;;;;;;3.45;1.63;;;;;;;20.60;57.52;101859.88;5042475;28;20049;-62
2023/08/17 04:41:42;;;;;;;4.82;1.70;;;;;;;20.52;57.45;101849.47;5042046;28;20050;-63
2023/08/17 04:44:10;;;;;;;3.38;1.70;;;;;;;20.57;57.41;101863.97;5041528;28;20045;-62
2023/08/17 04:46:40;;;;;;;4.85;1.92;;;;;;;20.57;57.42;101865.88;5042672;28;20049;-62
2023/08/17 04:49:08;;;;;;;4.20;1.42;;;;;;;20.56;57.55;101865.06;5059623;28;20053;-62
2023/08/17 04:51:36;;;;;;;4.78;1.50;;;;;;;20.56;57.52;101867.78;5042140;28;20054;-62
2023/08/17 04:54:04;;;;;;;6.35;1.70;;;;;;;20.55;57.53;101866.13;5042211;28;20041;-62
2023/08/17 04:56:32;;;;;;;4.15;1.70;;;;;;;20.56;57.49;101866.97;5042240;28;20049;-62
2023/08/17 04:59:00;;;;;;;3.63;1.55;;;;;;;20.54;57.51;101869.13;5041914;28;20049;-62
2023/08/17 05:01:27;;;;;;;5.20;1.60;;;;;;;20.52;57.52;101863.13;5049713;28;20065;-62
2023/08/17 05:03:57;;;;;;;5.60;2.13;;;;;;;20.50;57.53;101857.91;5042151;28;20042;-62
2023/08/17 05:06:25;;;;;;;5.68;1.60;;;;;;;20.49;57.63;101864.47;5042224;28;20054;-63
2023/08/17 05:08:53;;;;;;;5.43;2.20;;;;;;;20.48;57.50;101857.34;5041759;28;20046;-62
2023/08/17 05:11:21;;;;;;;3.20;1.35;;;;;;;20.49;57.63;101859.00;5042308;28;20075;-62
2023/08/17 05:13:48;;;;;;;5.40;1.42;;;;;;;20.48;57.58;101862.81;5041683;28;20555;-62
2023/08/17 05:16:16;;;;;;;3.97;1.75;;;;;;;20.47;57.67;101855.72;5041240;28;20049;-62
2023/08/17 05:18:44;;;;;;;5.90;1.50;;;;;;;20.46;57.67;101857.63;5042094;28;20106;-62
2023/08/17 05:21:13;;;;;;;5.53;2.00;;;;;;;20.45;57.73;101864.16;5056210;28;20467;-62
2023/08/17 05:23:41;;;;;;;2.88;1.40;;;;;;;20.44;57.79;101853.50;5053181;28;20046;-62
2023/08/17 05:26:09;;;;;;;3.42;1.17;;;;;;;20.43;57.77;101858.13;5041853;28;20453;-62
2023/08/17 05:28:37;;;;;;;6.18;1.75;;;;;;;20.42;57.79;101856.50;5056242;28;20053;-62
2023/08/17 05:31:07;;;;;;;5.78;1.20;;;;;;;20.41;57.81;101857.59;5062149;28;20049;-63
2023/08/17 05:33:35;;;;;;;4.90;1.95;;;;;;;20.40;57.81;101858.66;5061798;28;20125;-62
2023/08/17 05:36:03;;;;;;;2.28;1.40;;;;;;;20.40;57.93;101866.84;5043654;28;20054;-62
2023/08/17 05:38:32;;;;;;;4.00;1.52;;;;;;;20.40;58.03;101864.13;5091643;27;20060;-62
2023/08/17 05:41:01;;;;;;;3.00;1.48;;;;;;;20.40;57.89;101860.56;5045414;28;20060;-62
2023/08/17 05:43:29;;;;;;;2.97;1.77;;;;;;;20.38;57.93;101865.44;5044801;28;20045;-62
2023/08/17 05:45:58;;;;;;;3.92;1.83;;;;;;;20.37;58.01;101856.44;5044886;28;20067;-62
2023/08/17 05:48:26;;;;;;;2.35;1.48;;;;;;;20.35;58.15;101868.69;5062978;28;20105;-62
2023/08/17 05:50:56;;;;;;;4.15;1.70;;;;;;;20.34;58.19;101862.41;5055914;28;20078;-62
2023/08/17 05:53:23;;;;;;;3.28;1.52;;;;;;;20.34;58.04;101859.69;5057726;28;20067;-62
2023/08/17 05:55:53;;;;;;;2.88;1.60;;;;;;;20.34;58.14;101862.41;5047307;28;20050;-62
2023/08/17 05:58:21;;;;;;;4.38;1.90;;;;;;;20.34;58.26;101865.16;5052190;28;20069;-63
2023/08/17 06:00:49;;;;;;;8.10;1.83;;;;;;;20.34;58.09;101865.16;5044994;28;20505;-63
2023/08/17 06:03:17;;;;;;;5.07;2.28;;;;;;;20.36;58.28;101871.16;5044881;28;20056;-63
2023/08/17 06:05:45;;;;;;;6.07;1.52;;;;;;;20.36;58.33;101882.09;5044697;28;20052;-63
2023/08/17 06:08:13;;;;;;;6.18;1.58;;;;;;;20.37;58.13;101878.28;5044891;28;20049;-63
2023/08/17 06:10:41;;;;;;;5.22;1.85;;;;;;;20.37;58.33;101886.47;5044154;28;20049;-62
2023/08/17 06:13:10;;;;;;;3.25;1.63;;;;;;;20.37;58.26;101891.09;5044562;28;20460;-63
2023/08/17 06:15:38;;;;;;;4.80;1.70;;;;;;;20.37;58.38;101880.19;5044496;28;20075;-63
2023/08/17 06:18:06;;;;;;;3.78;1.30;;;;;;;20.37;58.45;101882.91;5046815;28;20045;-63
2023/08/17 06:20:34;;;;;;;7.63;2.22;;;;;;;20.37;58.37;101878.28;5050716;28;20054;-62
2023/08/17 06:23:02;;;;;;;5.10;1.80;;;;;;;20.37;58.38;101886.47;5046357;27;20046;-63
2023/08/17 06:25:30;;;;;;;4.22;2.15;;;;;;;20.37;58.40;101886.47;5044358;28;20110;-63
2023/08/17 06:27:58;;;;;;;6.75;1.75;;;;;;;20.37;58.48;101877.44;5101229;27;20420;-62
2023/08/17 06:30:27;;;;;;;5.13;2.30;;;;;;;20.35;58.46;101885.09;5105396;27;20049;-63
2023/08/17 06:32:55;;;;;;;6.05;2.03;;;;;;;20.34;58.58;101886.16;5064184;27;20045;-62
2023/08/17 06:35:23;;;;;;;4.18;2.15;;;;;;;20.33;58.59;101889.97;5062882;28;20068;-62
2023/08/17 06:37:51;;;;;;;4.80;1.98;;;;;;;20.32;58.65;101889.16;5120764;27;20099;-62
2023/08/17 06:40:19;;;;;;;3.28;1.65;;;;;;;20.31;58.67;101894.88;5148774;27;20084;-62
2023/08/17 06:42:47;;;;;;;6.30;1.98;;;;;;;20.29;58.50;101886.94;5148514;27;20099;-62
2023/08/17 06:45:18;;;;;;;6.25;1.90;;;;;;;20.28;58.87;101888.03;5079892;27;20116;-62
2023/08/17 06:47:48;;;;;;;5.32;1.90;;;;;;;20.27;58.87;101891.03;5063430;28;20099;-62
2023/08/17 06:50:16;;;;;;;2.53;1.40;;;;;;;20.26;58.80;101892.09;5052722;28;20136;-63
2023/08/17 06:52:44;;;;;;;5.93;1.95;;;;;;;20.25;58.94;101896.75;5043840;28;20412;-62
2023/08/17 06:55:12;;;;;;;5.70;1.65;;;;;;;20.26;58.93;101894.84;5047326;28;20046;-62
2023/08/17 06:57:40;;;;;;;6.68;1.88;;;;;;;20.26;58.80;101889.38;5043862;28;20061;-62
2023/08/17 07:00:11;;;;;;;5.07;1.92;;;;;;;20.27;58.87;101877.38;5058215;28;20208;-62
2023/08/17 07:02:39;;;;;;;3.60;1.50;;;;;;;20.27;58.92;101882.84;5063930;28;20438;-62
2023/08/17 07:05:22;;;;;;;6.07;1.70;;;;;;;20.27;58.98;101886.38;5054819;28;20071;-62
2023/08/17 07:07:50;;;;;;;6.13;1.85;;;;;;;20.19;58.92;101870.50;5054994;28;20045;-62
2023/08/17 07:10:18;;;;;;;4.85;1.75;;;;;;;20.28;59.00;101884.47;5064074;28;20090;-62
2023/08/17 07:12:46;;;;;;;8.73;2.15;;;;;;;20.28;58.99;101885.31;5063331;27;20049;-63
2023/08/17 07:15:15;;;;;;;8.02;1.92;;;;;;;20.29;58.97;101886.13;5061091;28;20041;-61
2023/08/17 07:17:43;;;;;;;3.10;1.50;;;;;;;20.29;59.14;101886.13;5043848;28;20083;-62
2023/08/17 07:20:12;;;;;;;4.82;1.83;;;;;;;20.29;59.13;101897.03;5058769;28;20044;-62
2023/08/17 07:22:45;;;;;;;9.27;2.47;;;;;;;20.29;59.15;101886.13;5063485;28;20114;-62
2023/08/17 07:25:13;;;;;;;8.48;1.92;;;;;;;20.29;59.09;101891.59;5043518;28;20041;-63
2023/08/17 07:27:42;;;;;;;4.75;2.25;;;;;;;20.27;59.04;101886.38;5088037;27;20053;-63
2023/08/17 07:30:10;;;;;;;4.45;1.90;;;;;;;20.27;59.35;101886.38;5148184;27;20051;-62
2023/08/17 07:32:38;;;;;;;5.53;1.88;;;;;;;20.27;59.35;101891.84;5070042;27;20077;-62
2023/08/17 07:35:08;;;;;;;9.25;2.03;;;;;;;20.26;59.45;101892.09;5063271;28;20072;-62
2023/08/17 07:37:36;;;;;;;4.22;2.25;;;;;;;20.25;59.46;101894.00;5052176;28;20045;-63
2023/08/17 07:40:07;;;;;;;7.15;2.50;;;;;;;20.26;59.35;101900.28;5045629;28;20132;-62
2023/08/17 07:42:35;;;;;;;3.33;1.30;;;;;;;20.25;59.35;101902.22;5062844;28;20081;-62
2023/08/17 07:45:05;;;;;;;4.60;1.83;;;;;;;20.25;59.46;101901.38;5063150;28;20074;-62
2023/08/17 07:47:34;;;;;;;4.38;1.98;;;;;;;20.25;59.60;101898.66;5063335;28;20078;-62
2023/08/17 07:50:03;;;;;;;5.43;2.53;;;;;;;20.23;59.55;101900.81;5058843;28;20049;-62
2023/08/17 07:52:31;;;;;;;6.28;1.80;;;;;;;20.23;59.56;101901.66;5063284;28;20049;-62
2023/08/17 07:54:59;;;;;;;2.80;1.65;;;;;;;20.23;59.62;101911.75;5055088;27;20049;-62
2023/08/17 07:57:28;;;;;;;6.13;2.78;;;;;;;20.23;59.58;101911.75;5057987;28;20053;-62
2023/08/17 07:59:56;;;;;;;6.63;2.05;;;;;;;20.22;59.57;101905.47;5042735;28;20057;-62
2023/08/17 08:02:24;;;;;;;8.55;2.67;;;;;;;20.22;59.75;101905.47;5046567;28;20079;-62
2023/08/17 08:04:52;;;;;;;6.05;2.35;;;;;;;20.21;59.57;101898.34;5042382;28;20055;-61
2023/08/17 08:07:20;;;;;;;5.63;1.98;;;;;;;20.22;59.58;101901.91;5042979;28;20049;-62
2023/08/17 08:09:48;;;;;;;4.60;1.75;;;;;;;20.23;59.63;101901.66;5051545;28;20059;-62
2023/08/17 08:12:16;;;;;;;4.65;1.85;;;;;;;20.23;59.67;101903.56;5055565;28;20052;-62
2023/08/17 08:14:45;;;;;;;6.68;2.15;;;;;;;20.23;59.74;101906.28;5042497;28;20053;-62
2023/08/17 08:17:13;;;;;;;7.32;1.90;;;;;;;20.22;59.60;101897.25;5042992;28;20049;-62
2023/08/17 08:19:41;;;;;;;6.35;2.50;;;;;;;20.21;59.77;101894.81;5054852;27;20049;-62
2023/08/17 08:22:08;;;;;;;6.70;2.30;;;;;;;20.21;59.79;101892.88;5062987;28;20049;-62
2023/08/17 08:24:36;;;;;;;7.47;2.22;;;;;;;20.21;59.75;101900.25;5043609;28;20049;-62
2023/08/17 08:27:06;;;;;;;7.00;1.98;;;;;;;20.21;59.93;101900.25;5051488;28;20037;-62
2023/08/17 08:29:35;;;;;;;5.32;2.10;;;;;;;20.21;59.70;101906.53;5062265;28;20060;-62
2023/08/17 08:32:04;;;;;;;5.65;2.10;;;;;;;20.22;59.90;101899.16;5062646;28;20521;-63
2023/08/17 08:34:32;;;;;;;5.05;2.13;;;;;;;20.21;59.82;101903.00;5134506;27;20061;-63
2023/08/17 08:37:00;;;;;;;4.10;2.00;;;;;;;20.22;59.97;101907.38;5127631;27;20062;-62
2023/08/17 08:39:28;;;;;;;5.53;2.08;;;;;;;20.21;59.93;101906.53;5061953;28;20101;-62
2023/08/17 08:41:56;;;;;;;5.47;1.77;;;;;;;20.22;59.91;101899.16;5062430;28;20059;-62
2023/08/17 08:44:24;;;;;;;3.70;1.80;;;;;;;20.22;59.79;101902.72;5062015;28;20045;-62
2023/08/17 08:46:55;;;;;;;5.82;2.05;;;;;;;20.23;59.96;101903.56;5050930;28;20045;-62
2023/08/17 08:49:25;;;;;;;2.88;1.75;;;;;;;20.23;60.03;101896.19;5042336;28;20053;-62
2023/08/17 08:51:53;;;;;;;7.72;1.88;;;;;;;20.25;59.86;101895.94;5042656;28;20053;-62
2023/08/17 08:54:23;;;;;;;7.47;2.30;;;;;;;20.17;59.83;101885.47;5038406;28;20070;-62
2023/08/17 08:56:55;;;;;;;5.20;2.08;;;;;;;20.23;60.07;101888.00;5042170;28;20105;-62
2023/08/17 08:59:26;;;;;;;6.07;2.42;;;;;;;20.23;59.97;101888.00;5040651;28;20053;-62
2023/08/17 09:01:56;;;;;;;13.90;3.30;;;;;;;20.24;60.23;101889.63;5062437;28;20045;-62
2023/08/17 09:04:26;;;;;;;6.60;2.30;;;;;;;20.25;59.90;101885.00;5059356;28;20049;-62
2023/08/17 09:06:56;;;;;;;6.78;2.35;;;;;;;20.24;60.22;101888.81;5042077;28;20053;-63
2023/08/17 09:09:24;;;;;;;6.28;1.90;;;;;;;20.24;60.10;101886.09;5045488;28;20106;-62
2023/08/17 09:11:56;;;;;;;6.50;2.10;;;;;;;20.24;60.16;101883.34;5065137;28;20083;-61
2023/08/17 09:14:24;;;;;;;6.82;2.30;;;;;;;20.23;60.16;101888.00;5046749;28;20066;-62
2023/08/17 09:16:52;;;;;;;3.25;1.85;;;;;;;20.25;60.25;101885.00;5045442;28;20057;-62
2023/08/17 09:19:21;;;;;;;5.72;2.63;;;;;;;20.25;60.07;101890.47;5058655;28;20080;-62
2023/08/17 09:21:50;;;;;;;7.70;2.28;;;;;;;20.26;60.20;101889.38;5065633;28;20049;-62
2023/08/17 09:24:19;;;;;;;10.10;3.20;;;;;;;20.25;60.24;101885.81;5052529;27;20050;-62
2023/08/17 09:26:47;;;;;;;8.10;2.03;;;;;;;20.25;60.20;101887.72;5046352;28;20041;-62
2023/08/17 09:29:19;;;;;;;4.28;2.10;;;;;;;20.25;60.20;101885.81;5064950;28;20052;-62
2023/08/17 09:31:47;;;;;;;6.78;2.55;;;;;;;20.24;60.37;101881.44;5065594;28;20052;-62
2023/08/17 09:34:15;;;;;;;4.80;2.10;;;;;;;20.26;60.21;101875.72;5101665;27;20102;-62
2023/08/17 09:36:46;;;;;;;7.53;2.17;;;;;;;20.26;60.24;101881.19;5066317;27;20114;-62
2023/08/17 09:39:16;;;;;;;4.53;2.58;;;;;;;20.25;60.43;101885.81;5150415;27;20047;-62
2023/08/17 09:41:45;;;;;;;5.07;2.30;;;;;;;20.24;60.27;101883.34;5101330;27;20060;-62
2023/08/17 09:44:13;;;;;;;4.28;2.08;;;;;;;20.24;60.57;101878.72;5045013;28;20069;-63
2023/08/17 09:46:44;;;;;;;8.30;2.78;;;;;;;20.25;60.64;101882.28;5045372;28;20050;-63
2023/08/17 09:49:12;;;;;;;8.27;2.85;;;;;;;20.23;60.58;101878.97;5059041;28;20052;-63
2023/08/17 09:51:43;;;;;;;9.45;2.95;;;;;;;20.24;60.59;101878.72;5045234;28;20049;-63
2023/08/17 09:54:21;;;;;;;9.60;3.38;;;;;;;20.23;60.52;101881.72;5052168;27;20045;-63
2023/08/17 09:56:50;;;;;;;11.07;2.90;;;;;;;20.21;60.69;101879.25;5065066;28;20045;-63
2023/08/17 09:59:18;;;;;;;8.95;3.05;;;;;;;20.21;60.66;101870.22;5025097;28;20049;-63
2023/08/17 10:01:49;;;;;;;7.78;3.20;;;;;;;20.21;60.67;101872.97;5025340;28;20053;-62
2023/08/17 10:04:24;;;;;;;11.18;3.08;;;;;;;20.21;60.85;101864.78;5029165;28;20070;-63
2023/08/17 10:06:59;;;;;;;8.60;3.42;;;;;;;20.21;60.79;101860.13;5044578;28;20095;-62
2023/08/17 10:09:33;;;;;;;13.85;2.90;;;;;;;20.22;60.69;101869.16;5044851;28;20050;-62
2023/08/17 10:12:10;;;;;;;8.65;3.25;;;;;;;20.21;60.79;101868.31;5044770;28;20046;-62
2023/08/17 10:14:46;;;;;;;8.07;3.22;;;;;;;20.21;60.94;101865.59;5044529;28;20054;-62
2023/08/17 10:17:18;;;;;;;7.15;2.95;;;;;;;20.22;60.93;101859.06;5044765;28;20053;-62
2023/08/17 10:19:51;;;;;;;10.68;3.58;;;;;;;20.22;60.87;101858.22;5062524;28;20045;-61
2023/08/17 10:22:24;;;;;;;12.20;4.13;;;;;;;20.22;60.95;101858.22;5063574;28;20109;-61
2023/08/17 10:24:55;;;;;;;9.40;3.20;;;;;;;20.20;60.91;101855.75;5046849;27;20426;-61
2023/08/17 10:27:23;;;;;;;8.48;3.75;;;;;;;20.20;61.10;101846.75;5079596;27;20100;-62
2023/08/17 10:29:52;;;;;;;7.00;3.08;;;;;;;20.21;60.92;101848.38;5148827;27;20051;-62
2023/08/17 10:32:23;;;;;;;10.05;3.63;;;;;;;20.20;61.14;101844.84;5149062;27;20047;-62
2023/08/17 10:34:53;;;;;;;9.20;3.83;;;;;;;20.13;61.11;101836.88;5061981;27;20045;-62
2023/08/17 10:37:21;;;;;;;5.93;3.10;;;;;;;20.22;61.23;101837.22;5092231;27;20039;-61
2023/08/17 10:39:49;;;;;;;6.38;3.15;;;;;;;20.21;60.89;101835.56;5148807;27;20536;-62
2023/08/17 10:42:32;;;;;;;12.55;3.80;;;;;;;20.22;61.18;101844.56;5077640;27;20053;-61
2023/08/17 10:45:02;;;;;;;10.65;4.47;;;;;;;20.23;61.11;101840.75;5043932;28;20050;-62
2023/08/17 10:47:31;;;;;;;7.05;3.40;;;;;;;20.24;61.00;101850.59;5044247;28;20046;-62
2023/08/17 10:50:06;;;;;;;14.13;3.70;;;;;;;20.23;61.23;101838.84;5048766;28;20078;-62
2023/08/17 10:52:37;;;;;;;8.57;3.65;;;;;;;20.24;61.29;101845.97;5044500;28;20053;-62
2023/08/17 10:55:06;;;;;;;8.90;3.67;;;;;;;20.24;61.30;101842.41;5048535;28;20052;-62
2023/08/17 10:57:37;;;;;;;10.50;3.88;;;;;;;20.25;61.23;101835.88;5043654;28;20410;-62
2023/08/17 11:00:26;;;;;;;9.70;3.95;;;;;;;20.25;61.34;101836.69;5059177;28;20070;-63
2023/08/17 11:02:56;;;;;;;8.18;3.95;;;;;;;20.26;61.26;101842.97;5024473;28;20061;-62
2023/08/17 11:05:49;;;;;;;9.23;4.05;;;;;;;20.27;61.23;101834.53;5057039;28;20080;-62
2023/08/17 11:08:22;;;;;;;8.55;4.47;;;;;;;20.29;61.18;101839.72;5063930;28;20045;-62
2023/08/17 11:10:59;;;;;;;10.10;4.20;;;;;;;20.30;61.30;101841.38;5063901;28;20075;-62
2023/08/17 11:13:32;;;;;;;13.05;4.88;;;;;;;20.30;61.38;101844.91;5059430;27;20053;-62
2023/08/17 11:16:01;;;;;;;8.32;3.70;;;;;;;20.31;61.41;101848.47;5043373;28;20114;-63
2023/08/17 11:18:31;;;;;;;9.57;4.07;;;;;;;20.32;61.50;101847.38;5045652;28;20109;-62
2023/08/17 11:20:59;;;;;;;8.57;4.45;;;;;;;20.32;61.56;101850.94;5063715;28;20098;-62
2023/08/17 11:23:30;;;;;;;11.38;4.50;;;;;;;20.33;61.60;101849.84;5055945;28;20046;-62
2023/08/17 11:25:58;;;;;;;10.23;4.60;;;;;;;20.33;61.68;101846.28;5043314;28;20438;-62
2023/08/17 11:28:29;;;;;;;8.63;4.13;;;;;;;20.35;61.58;101849.59;5121068;27;20051;-62
2023/08/17 11:31:02;;;;;;;10.18;4.00;;;;;;;20.36;61.50;101846.59;5148016;27;20152;-62
2023/08/17 11:33:31;;;;;;;11.50;4.68;;;;;;;20.36;61.64;101849.31;5102733;27;20056;-62
2023/08/17 11:36:01;;;;;;;10.52;4.72;;;;;;;20.37;61.75;101850.16;5063385;28;20478;-62
2023/08/17 11:38:31;;;;;;;9.38;3.75;;;;;;;20.38;61.71;101860.84;5051940;28;20049;-62